createdAt,value
2023-04-22T00:00:29.542Z,14.59
2023-04-22T00:01:29.505Z,14.59
2023-04-22T00:02:29.618Z,14.59
2023-04-22T00:03:29.720Z,14.59
2023-04-22T00:04:29.749Z,14.59
2023-04-22T00:05:29.530Z,14.57
2023-04-22T00:06:29.458Z,14.53
2023-04-22T00:07:29.428Z,14.52
2023-04-22T00:08:29.427Z,14.49
2023-04-22T00:09:29.434Z,14.48
2023-04-22T00:10:29.406Z,14.48
2023-04-22T00:11:29.400Z,14.46
2023-04-22T00:12:29.406Z,14.44
2023-04-22T00:13:29.381Z,14.38
2023-04-22T00:14:29.368Z,14.35
2023-04-22T00:15:29.382Z,14.38
2023-04-22T00:16:29.402Z,14.38
2023-04-22T00:17:29.446Z,14.38
2023-04-22T00:18:29.325Z,14.36
2023-04-22T00:19:29.321Z,14.35
2023-04-22T00:20:29.309Z,14.36
2023-04-22T00:21:29.281Z,14.36
2023-04-22T00:22:29.317Z,14.36
2023-04-22T00:23:29.264Z,14.38
2023-04-22T00:24:29.287Z,14.36
2023-04-22T00:25:29.257Z,14.34
2023-04-22T00:26:29.233Z,14.30
2023-04-22T00:27:29.243Z,14.27
2023-04-22T00:28:29.224Z,14.26
2023-04-22T00:29:29.209Z,14.24
2023-04-22T00:30:29.201Z,14.26
2023-04-22T00:31:29.238Z,14.24
2023-04-22T00:32:29.203Z,14.23
2023-04-22T00:33:29.166Z,14.20
2023-04-22T00:34:29.168Z,14.19
2023-04-22T00:35:29.149Z,14.17
2023-04-22T00:36:29.126Z,14.17
2023-04-22T00:37:29.113Z,14.20
2023-04-22T00:38:29.139Z,14.20
2023-04-22T00:39:29.091Z,14.20
2023-04-22T00:40:29.112Z,14.21
2023-04-22T00:41:29.094Z,14.21
2023-04-22T00:42:29.069Z,14.21
2023-04-22T00:43:29.054Z,14.23
2023-04-22T00:44:29.054Z,14.20
2023-04-22T00:45:29.072Z,14.19
2023-04-22T00:46:29.077Z,14.19
2023-04-22T00:47:29.039Z,14.17
2023-04-22T00:48:29.146Z,14.16
2023-04-22T00:49:28.985Z,14.12
2023-04-22T00:50:28.977Z,14.13
2023-04-22T00:51:28.993Z,14.11
2023-04-22T00:52:28.961Z,14.11
2023-04-22T00:53:28.950Z,14.11
2023-04-22T00:54:28.953Z,14.12
2023-04-22T00:55:28.930Z,14.12
2023-04-22T00:56:28.927Z,14.11
2023-04-22T00:57:28.907Z,14.09
2023-04-22T00:58:28.904Z,14.08
2023-04-22T00:59:28.882Z,14.05
2023-04-22T01:00:28.945Z,14.05
2023-04-22T01:01:28.888Z,14.05
2023-04-22T01:02:29.018Z,14.02
2023-04-22T01:03:29.046Z,14.02
2023-04-22T01:04:28.903Z,14.01
2023-04-22T01:05:28.828Z,13.98
2023-04-22T01:06:28.811Z,13.94
2023-04-22T01:07:28.798Z,13.91
2023-04-22T01:08:28.807Z,13.88
2023-04-22T01:09:28.810Z,13.90
2023-04-22T01:10:28.770Z,13.88
2023-04-22T01:11:28.751Z,13.88
2023-04-22T01:12:28.770Z,13.88
2023-04-22T01:13:28.747Z,13.88
2023-04-22T01:14:28.732Z,13.88
2023-04-22T01:15:28.738Z,13.88
2023-04-22T01:16:28.742Z,13.90
2023-04-22T01:17:28.706Z,13.88
2023-04-22T01:18:28.685Z,13.87
2023-04-22T01:19:28.692Z,13.84
2023-04-22T01:20:28.678Z,13.84
2023-04-22T01:21:28.694Z,13.83
2023-04-22T01:22:28.643Z,13.81
2023-04-22T01:23:28.642Z,13.79
2023-04-22T01:24:28.639Z,13.79
2023-04-22T01:25:28.636Z,13.76
2023-04-22T01:26:28.619Z,13.72
2023-04-22T01:27:28.625Z,13.72
2023-04-22T01:28:28.604Z,13.75
2023-04-22T01:29:28.596Z,13.73
2023-04-22T01:30:28.588Z,13.75
2023-04-22T01:31:28.620Z,13.75
2023-04-22T01:32:28.750Z,13.73
2023-04-22T01:33:28.543Z,13.75
2023-04-22T01:34:28.541Z,13.72
2023-04-22T01:35:28.561Z,13.72
2023-04-22T01:36:28.511Z,13.69
2023-04-22T01:37:28.486Z,13.68
2023-04-22T01:38:28.490Z,13.69
2023-04-22T01:39:28.491Z,13.66
2023-04-22T01:40:28.483Z,13.65
2023-04-22T01:41:28.461Z,13.66
2023-04-22T01:42:28.448Z,13.65
2023-04-22T01:43:28.438Z,13.63
2023-04-22T01:44:28.425Z,13.63
2023-04-22T01:45:28.407Z,13.62
2023-04-22T01:46:28.525Z,13.63
2023-04-22T01:47:28.395Z,13.61
2023-04-22T01:48:28.383Z,13.59
2023-04-22T01:49:28.393Z,13.59
2023-04-22T01:50:28.360Z,13.57
2023-04-22T01:51:28.334Z,13.59
2023-04-22T01:52:28.334Z,13.59
2023-04-22T01:53:28.319Z,13.55
2023-04-22T01:54:28.321Z,13.54
2023-04-22T01:55:28.325Z,13.54
2023-04-22T01:56:28.308Z,13.54
2023-04-22T01:57:28.275Z,13.54
2023-04-22T01:58:28.268Z,13.54
2023-04-22T01:59:28.276Z,13.53
2023-04-22T02:00:28.258Z,13.51
2023-04-22T02:01:28.288Z,13.51
2023-04-22T02:02:28.320Z,13.50
2023-04-22T02:03:28.284Z,13.48
2023-04-22T02:04:28.238Z,13.46
2023-04-22T02:05:28.205Z,13.47
2023-04-22T02:06:28.200Z,13.47
2023-04-22T02:07:28.176Z,13.46
2023-04-22T02:08:28.179Z,13.44
2023-04-22T02:09:28.149Z,13.43
2023-04-22T02:10:28.164Z,13.41
2023-04-22T02:11:28.141Z,13.41
2023-04-22T02:12:28.125Z,13.36
2023-04-22T02:13:28.126Z,13.38
2023-04-22T02:14:28.108Z,13.36
2023-04-22T02:15:28.095Z,13.35
2023-04-22T02:16:28.122Z,13.32
2023-04-22T02:17:28.067Z,13.31
2023-04-22T02:18:28.067Z,13.31
2023-04-22T02:19:28.077Z,13.31
2023-04-22T02:20:28.018Z,13.31
2023-04-22T02:21:28.018Z,13.27
2023-04-22T02:22:28.002Z,13.25
2023-04-22T02:23:27.999Z,13.24
2023-04-22T02:24:28.008Z,13.24
2023-04-22T02:25:27.970Z,13.21
2023-04-22T02:26:27.976Z,13.21
2023-04-22T02:27:27.960Z,13.21
2023-04-22T02:28:27.951Z,13.21
2023-04-22T02:29:27.953Z,13.19
2023-04-22T02:30:27.938Z,13.17
2023-04-22T02:31:27.933Z,13.16
2023-04-22T02:32:28.012Z,13.14
2023-04-22T02:33:27.896Z,13.14
2023-04-22T02:34:27.873Z,13.14
2023-04-22T02:35:27.879Z,13.12
2023-04-22T02:36:27.859Z,13.12
2023-04-22T02:37:27.844Z,13.10
2023-04-22T02:38:27.830Z,13.09
2023-04-22T02:39:27.822Z,13.06
2023-04-22T02:40:27.831Z,13.06
2023-04-22T02:41:27.805Z,13.06
2023-04-22T02:42:27.800Z,13.07
2023-04-22T02:43:27.805Z,13.04
2023-04-22T02:44:27.781Z,13.03
2023-04-22T02:45:27.752Z,13.03
2023-04-22T02:46:27.892Z,12.99
2023-04-22T02:47:27.798Z,13.01
2023-04-22T02:48:27.732Z,13.01
2023-04-22T02:49:27.732Z,12.98
2023-04-22T02:50:27.734Z,12.96
2023-04-22T02:51:27.701Z,12.94
2023-04-22T02:52:27.720Z,12.91
2023-04-22T02:53:27.688Z,12.91
2023-04-22T02:54:27.676Z,12.91
2023-04-22T02:55:27.661Z,12.91
2023-04-22T02:56:27.655Z,12.89
2023-04-22T02:57:27.640Z,12.87
2023-04-22T02:58:27.637Z,12.87
2023-04-22T02:59:27.618Z,12.88
2023-04-22T03:00:27.651Z,12.85
2023-04-22T03:01:27.682Z,12.84
2023-04-22T03:02:27.696Z,12.80
2023-04-22T03:03:27.894Z,12.79
2023-04-22T03:04:27.711Z,12.77
2023-04-22T03:05:27.561Z,12.77
2023-04-22T03:06:27.549Z,12.76
2023-04-22T03:07:27.543Z,12.76
2023-04-22T03:08:27.550Z,12.76
2023-04-22T03:09:27.515Z,12.74
2023-04-22T03:10:27.499Z,12.74
2023-04-22T03:11:27.494Z,12.74
2023-04-22T03:12:27.487Z,12.74
2023-04-22T03:13:27.478Z,12.73
2023-04-22T03:14:27.455Z,12.73
2023-04-22T03:15:27.440Z,12.73
2023-04-22T03:16:27.483Z,12.71
2023-04-22T03:17:27.452Z,12.71
2023-04-22T03:18:27.429Z,12.70
2023-04-22T03:19:27.394Z,12.70
2023-04-22T03:20:27.391Z,12.70
2023-04-22T03:21:27.382Z,12.71
2023-04-22T03:22:27.372Z,12.71
2023-04-22T03:23:27.350Z,12.69
2023-04-22T03:24:27.364Z,12.70
2023-04-22T03:25:27.328Z,12.70
2023-04-22T03:26:27.346Z,12.71
2023-04-22T03:27:27.343Z,12.70
2023-04-22T03:28:27.313Z,12.69
2023-04-22T03:29:27.313Z,12.67
2023-04-22T03:30:27.284Z,12.66
2023-04-22T03:31:27.342Z,12.67
2023-04-22T03:32:27.273Z,12.67
2023-04-22T03:33:27.244Z,12.66
2023-04-22T03:34:27.252Z,12.66
2023-04-22T03:35:27.260Z,12.63
2023-04-22T03:36:27.220Z,12.63
2023-04-22T03:37:27.215Z,12.62
2023-04-22T03:38:27.296Z,12.61
2023-04-22T03:39:27.199Z,12.58
2023-04-22T03:40:27.188Z,12.58
2023-04-22T03:41:27.156Z,12.55
2023-04-22T03:42:27.166Z,12.56
2023-04-22T03:43:27.167Z,12.52
2023-04-22T03:44:27.132Z,12.52
2023-04-22T03:45:27.158Z,12.52
2023-04-22T03:46:27.266Z,12.52
2023-04-22T03:47:27.190Z,12.49
2023-04-22T03:48:27.113Z,12.51
2023-04-22T03:49:27.078Z,12.49
2023-04-22T03:50:27.077Z,12.44
2023-04-22T03:51:27.092Z,12.41
2023-04-22T03:52:27.072Z,12.38
2023-04-22T03:53:27.068Z,12.37
2023-04-22T03:54:27.155Z,12.37
2023-04-22T03:55:27.045Z,12.37
2023-04-22T03:56:27.024Z,12.38
2023-04-22T03:57:27.122Z,12.37
2023-04-22T03:58:27.364Z,12.37
2023-04-22T03:59:27.013Z,12.37
2023-04-22T04:00:26.962Z,12.36
2023-04-22T04:01:27.059Z,12.34
2023-04-22T04:02:27.109Z,12.34
2023-04-22T04:03:30.276Z,12.31
2023-04-22T04:04:27.102Z,12.30
2023-04-22T04:05:27.127Z,12.31
2023-04-22T04:06:26.899Z,12.30
2023-04-22T04:07:26.931Z,12.26
2023-04-22T04:08:26.917Z,12.25
2023-04-22T04:09:26.880Z,12.26
2023-04-22T04:10:26.846Z,12.25
2023-04-22T04:11:26.854Z,12.23
2023-04-22T04:12:26.837Z,12.22
2023-04-22T04:13:26.824Z,12.21
2023-04-22T04:14:26.830Z,12.19
2023-04-22T04:15:26.813Z,12.19
2023-04-22T04:16:26.858Z,12.18
2023-04-22T04:17:26.838Z,12.16
2023-04-22T04:18:26.792Z,12.15
2023-04-22T04:19:26.763Z,12.13
2023-04-22T04:20:26.754Z,12.15
2023-04-22T04:21:26.773Z,12.12
2023-04-22T04:22:26.742Z,12.11
2023-04-22T04:23:26.723Z,12.11
2023-04-22T04:24:26.705Z,12.08
2023-04-22T04:25:26.726Z,12.05
2023-04-22T04:26:26.695Z,12.07
2023-04-22T04:27:26.700Z,12.07
2023-04-22T04:28:26.700Z,12.05
2023-04-22T04:29:26.651Z,12.04
2023-04-22T04:30:26.645Z,12.04
2023-04-22T04:31:26.730Z,12.03
2023-04-22T04:32:26.726Z,12.03
2023-04-22T04:33:26.628Z,12.03
2023-04-22T04:34:26.605Z,12.01
2023-04-22T04:35:26.597Z,12.00
2023-04-22T04:36:26.581Z,11.98
2023-04-22T04:37:26.593Z,11.97
2023-04-22T04:38:26.581Z,11.96
2023-04-22T04:39:26.561Z,11.96
2023-04-22T04:40:26.542Z,11.97
2023-04-22T04:41:26.536Z,11.96
2023-04-22T04:42:26.505Z,11.98
2023-04-22T04:43:26.537Z,11.97
2023-04-22T04:44:26.482Z,11.96
2023-04-22T04:45:26.530Z,11.96
2023-04-22T04:46:26.521Z,11.96
2023-04-22T04:47:26.502Z,11.97
2023-04-22T04:48:26.446Z,11.96
2023-04-22T04:49:26.446Z,11.96
2023-04-22T04:50:26.442Z,11.96
2023-04-22T04:51:26.423Z,11.94
2023-04-22T04:52:26.398Z,11.94
2023-04-22T04:53:26.404Z,11.94
2023-04-22T04:54:26.386Z,11.94
2023-04-22T04:55:26.394Z,11.97
2023-04-22T04:56:26.374Z,11.98
2023-04-22T04:57:26.365Z,11.98
2023-04-22T04:58:26.349Z,11.98
2023-04-22T04:59:26.346Z,12.01
2023-04-22T05:00:26.334Z,12.01
2023-04-22T05:01:26.351Z,12.03
2023-04-22T05:02:26.515Z,12.03
2023-04-22T05:03:26.458Z,12.01
2023-04-22T05:04:26.727Z,12.04
2023-04-22T05:05:26.300Z,12.04
2023-04-22T05:06:26.294Z,12.04
2023-04-22T05:07:26.260Z,12.05
2023-04-22T05:08:26.253Z,12.05
2023-04-22T05:09:26.459Z,12.05
2023-04-22T05:10:26.213Z,12.07
2023-04-22T05:11:26.228Z,12.07
2023-04-22T05:12:26.201Z,12.08
2023-04-22T05:13:26.191Z,12.08
2023-04-22T05:14:26.191Z,12.11
2023-04-22T05:15:26.168Z,12.13
2023-04-22T05:16:26.180Z,12.13
2023-04-22T05:17:26.186Z,12.15
2023-04-22T05:18:26.133Z,12.15
2023-04-22T05:19:26.122Z,12.16
2023-04-22T05:20:26.136Z,12.16
2023-04-22T05:21:26.124Z,12.16
2023-04-22T05:22:26.095Z,12.16
2023-04-22T05:23:26.090Z,12.16
2023-04-22T05:24:26.076Z,12.16
2023-04-22T05:25:26.069Z,12.18
2023-04-22T05:26:26.049Z,12.19
2023-04-22T05:27:26.037Z,12.19
2023-04-22T05:28:26.721Z,12.21
2023-04-22T05:29:26.744Z,12.21
2023-04-22T05:30:26.022Z,12.22
2023-04-22T05:31:26.041Z,12.22
2023-04-22T05:32:26.053Z,12.23
2023-04-22T05:33:25.990Z,12.25
2023-04-22T05:34:25.963Z,12.23
2023-04-22T05:35:25.991Z,12.25
2023-04-22T05:36:26.693Z,12.25
2023-04-22T05:37:25.950Z,12.26
2023-04-22T05:38:25.951Z,12.26
2023-04-22T05:39:25.918Z,12.26
2023-04-22T05:40:25.976Z,12.30
2023-04-22T05:41:25.892Z,12.29
2023-04-22T05:42:25.900Z,12.31
2023-04-22T05:43:25.888Z,12.31
2023-04-22T05:44:25.872Z,12.33
2023-04-22T05:45:25.838Z,12.33
2023-04-22T05:46:25.845Z,12.34
2023-04-22T05:47:25.892Z,12.36
2023-04-22T05:48:25.814Z,12.36
2023-04-22T05:49:25.805Z,12.40
2023-04-22T05:50:25.812Z,12.40
2023-04-22T05:51:25.799Z,12.43
2023-04-22T05:52:25.779Z,12.44
2023-04-22T05:53:25.771Z,12.46
2023-04-22T05:54:25.790Z,12.48
2023-04-22T05:55:25.762Z,12.51
2023-04-22T05:56:25.732Z,12.51
2023-04-22T05:57:25.735Z,12.51
2023-04-22T05:58:25.724Z,12.52
2023-04-22T05:59:25.717Z,12.54
2023-04-22T06:00:25.698Z,12.52
2023-04-22T06:01:25.674Z,12.54
2023-04-22T06:02:25.813Z,12.56
2023-04-22T06:03:25.863Z,12.58
2023-04-22T06:04:25.951Z,12.59
2023-04-22T06:05:25.717Z,12.63
2023-04-22T06:06:25.723Z,12.67
2023-04-22T06:07:25.635Z,12.70
2023-04-22T06:08:25.718Z,12.71
2023-04-22T06:09:25.613Z,12.74
2023-04-22T06:10:26.310Z,12.77
2023-04-22T06:11:25.617Z,12.81
2023-04-22T06:12:26.587Z,12.85
2023-04-22T06:13:25.555Z,12.88
2023-04-22T06:14:26.755Z,12.92
2023-04-22T06:15:25.535Z,12.95
2023-04-22T06:16:26.403Z,12.96
2023-04-22T06:17:25.559Z,13.01
2023-04-22T06:18:28.248Z,13.06
2023-04-22T06:19:25.498Z,13.09
2023-04-22T06:20:25.506Z,13.12
2023-04-22T06:21:25.488Z,13.16
2023-04-22T06:22:25.447Z,13.19
2023-04-22T06:23:25.435Z,13.21
2023-04-22T06:24:25.428Z,13.22
2023-04-22T06:25:25.433Z,13.25
2023-04-22T06:26:25.429Z,13.27
2023-04-22T06:27:25.392Z,13.29
2023-04-22T06:28:25.394Z,13.29
2023-04-22T06:29:25.375Z,13.32
2023-04-22T06:30:25.374Z,13.36
2023-04-22T06:31:25.403Z,13.39
2023-04-22T06:32:25.352Z,13.43
2023-04-22T06:33:25.336Z,13.46
2023-04-22T06:34:25.327Z,13.48
2023-04-22T06:35:25.342Z,13.50
2023-04-22T06:36:25.316Z,13.51
2023-04-22T06:37:25.286Z,13.53
2023-04-22T06:38:25.304Z,13.54
2023-04-22T06:39:25.278Z,13.54
2023-04-22T06:40:25.244Z,13.59
2023-04-22T06:41:25.266Z,13.61
2023-04-22T06:42:25.234Z,13.62
2023-04-22T06:43:25.231Z,13.65
2023-04-22T06:44:25.282Z,13.66
2023-04-22T06:45:25.212Z,13.69
2023-04-22T06:46:25.195Z,13.72
2023-04-22T06:47:25.226Z,13.72
2023-04-22T06:48:25.188Z,13.76
2023-04-22T06:49:25.181Z,13.80
2023-04-22T06:50:25.166Z,13.83
2023-04-22T06:51:25.146Z,13.87
2023-04-22T06:52:25.125Z,13.87
2023-04-22T06:53:25.121Z,13.90
2023-04-22T06:54:25.109Z,13.91
2023-04-22T06:55:25.119Z,13.94
2023-04-22T06:56:25.103Z,13.98
2023-04-22T06:57:25.077Z,14.01
2023-04-22T06:58:25.064Z,14.04
2023-04-22T06:59:25.084Z,14.05
2023-04-22T07:00:25.044Z,14.08
2023-04-22T07:01:25.072Z,14.09
2023-04-22T07:02:25.081Z,14.13
2023-04-22T07:03:25.171Z,14.17
2023-04-22T07:04:25.037Z,14.21
2023-04-22T07:05:24.998Z,14.21
2023-04-22T07:06:24.998Z,14.27
2023-04-22T07:07:24.981Z,14.30
2023-04-22T07:08:24.949Z,14.34
2023-04-22T07:09:24.954Z,14.35
2023-04-22T07:10:24.931Z,14.38
2023-04-22T07:11:24.929Z,14.41
2023-04-22T07:12:24.945Z,14.42
2023-04-22T07:13:24.927Z,14.46
2023-04-22T07:14:24.891Z,14.52
2023-04-22T07:15:24.880Z,14.54
2023-04-22T07:16:24.900Z,14.56
2023-04-22T07:17:24.889Z,14.59
2023-04-22T07:18:24.861Z,14.63
2023-04-22T07:19:24.845Z,14.66
2023-04-22T07:20:24.831Z,14.69
2023-04-22T07:21:24.809Z,14.72
2023-04-22T07:22:24.815Z,14.74
2023-04-22T07:23:24.799Z,14.75
2023-04-22T07:24:24.788Z,14.79
2023-04-22T07:25:24.789Z,14.82
2023-04-22T07:26:24.764Z,14.85
2023-04-22T07:27:24.770Z,14.90
2023-04-22T07:28:24.733Z,14.95
2023-04-22T07:29:24.721Z,15.00
2023-04-22T07:30:24.827Z,15.04
2023-04-22T07:31:24.728Z,15.11
2023-04-22T07:32:24.850Z,15.16
2023-04-22T07:33:24.690Z,15.22
2023-04-22T07:34:24.689Z,15.27
2023-04-22T07:35:24.667Z,15.31
2023-04-22T07:36:24.652Z,15.37
2023-04-22T07:37:24.658Z,15.37
2023-04-22T07:38:24.632Z,15.43
2023-04-22T07:39:24.648Z,15.46
2023-04-22T07:40:24.654Z,15.51
2023-04-22T07:41:24.605Z,15.55
2023-04-22T07:42:24.574Z,15.59
2023-04-22T07:43:24.569Z,15.64
2023-04-22T07:44:24.572Z,15.70
2023-04-22T07:45:24.570Z,15.76
2023-04-22T07:46:24.597Z,15.78
2023-04-22T07:47:24.556Z,15.84
2023-04-22T07:48:24.516Z,15.86
2023-04-22T07:49:24.527Z,15.91
2023-04-22T07:50:24.518Z,15.95
2023-04-22T07:51:24.523Z,16.01
2023-04-22T07:52:24.497Z,16.06
2023-04-22T07:53:24.489Z,16.10
2023-04-22T07:54:24.462Z,16.14
2023-04-22T07:55:24.468Z,16.17
2023-04-22T07:56:24.448Z,16.26
2023-04-22T07:57:24.432Z,16.30
2023-04-22T07:58:24.436Z,16.34
2023-04-22T07:59:24.418Z,16.37
2023-04-22T08:00:24.415Z,16.44
2023-04-22T08:01:24.451Z,16.47
2023-04-22T08:02:24.615Z,16.52
2023-04-22T08:03:24.626Z,16.57
2023-04-22T08:04:24.649Z,16.63
2023-04-22T08:05:24.350Z,16.66
2023-04-22T08:06:24.336Z,16.70
2023-04-22T08:08:24.344Z,16.73
2023-04-22T08:09:24.302Z,16.78
2023-04-22T08:10:24.312Z,16.80
2023-04-22T08:11:24.290Z,16.81
2023-04-22T08:12:24.307Z,16.81
2023-04-22T08:13:24.247Z,16.82
2023-04-22T08:14:24.254Z,16.84
2023-04-22T08:15:24.242Z,16.85
2023-04-22T08:16:24.314Z,16.84
2023-04-22T08:17:24.240Z,16.84
2023-04-22T08:18:24.238Z,16.82
2023-04-22T08:19:24.204Z,16.84
2023-04-22T08:20:24.229Z,16.81
2023-04-22T08:21:24.194Z,16.78
2023-04-22T08:22:24.198Z,16.77
2023-04-22T08:23:24.157Z,16.77
2023-04-22T08:24:24.152Z,16.75
2023-04-22T08:25:24.121Z,16.75
2023-04-22T08:26:24.121Z,16.73
2023-04-22T08:27:24.112Z,16.72
2023-04-22T08:28:24.115Z,16.70
2023-04-22T08:29:24.080Z,16.67
2023-04-22T08:30:24.075Z,16.69
2023-04-22T08:31:24.096Z,16.67
2023-04-22T08:32:24.086Z,16.66
2023-04-22T08:33:26.524Z,16.67
2023-04-22T08:34:24.045Z,16.67
2023-04-22T08:35:24.024Z,16.67
2023-04-22T08:36:24.011Z,16.67
2023-04-22T08:37:24.000Z,16.67
2023-04-22T08:38:23.999Z,16.69
2023-04-22T08:39:23.995Z,16.70
2023-04-22T08:40:23.996Z,16.72
2023-04-22T08:41:23.966Z,16.72
2023-04-22T08:42:23.980Z,16.73
2023-04-22T08:43:23.946Z,16.77
2023-04-22T08:44:23.936Z,16.77
2023-04-22T08:45:23.919Z,16.77
2023-04-22T08:46:23.964Z,16.78
2023-04-22T08:47:23.948Z,16.80
2023-04-22T08:48:23.886Z,16.81
2023-04-22T08:49:23.870Z,16.82
2023-04-22T08:50:23.879Z,16.82
2023-04-22T08:51:23.857Z,16.85
2023-04-22T08:52:23.854Z,16.88
2023-04-22T08:53:24.888Z,16.90
2023-04-22T08:54:23.830Z,16.91
2023-04-22T08:55:23.823Z,16.96
2023-04-22T08:56:23.808Z,16.98
2023-04-22T08:57:23.807Z,17.00
2023-04-22T08:58:23.810Z,17.02
2023-04-22T08:59:23.798Z,17.05
2023-04-22T09:00:23.775Z,17.09
2023-04-22T09:01:23.756Z,17.15
2023-04-22T09:02:23.788Z,17.22
2023-04-22T09:03:23.815Z,17.28
2023-04-22T09:04:23.825Z,17.35
2023-04-22T09:05:25.174Z,17.39
2023-04-22T09:06:23.737Z,17.45
2023-04-22T09:07:23.684Z,17.51
2023-04-22T09:08:23.668Z,17.57
2023-04-22T09:09:23.661Z,17.63
2023-04-22T09:10:23.656Z,17.71
2023-04-22T09:11:23.665Z,17.79
2023-04-22T09:12:23.647Z,17.86
2023-04-22T09:13:23.623Z,17.94
2023-04-22T09:14:23.608Z,18.01
2023-04-22T09:15:23.587Z,18.10
2023-04-22T09:16:23.660Z,18.19
2023-04-22T09:17:23.609Z,18.26
2023-04-22T09:18:23.556Z,18.34
2023-04-22T09:19:23.563Z,18.42
2023-04-22T09:20:23.546Z,18.51
2023-04-22T09:21:23.547Z,18.60
2023-04-22T09:22:23.548Z,18.71
2023-04-22T09:23:23.510Z,18.79
2023-04-22T09:24:23.504Z,18.87
2023-04-22T09:25:23.497Z,18.96
2023-04-22T09:26:23.499Z,19.05
2023-04-22T09:27:23.465Z,19.10
2023-04-22T09:28:23.481Z,19.16
2023-04-22T09:29:23.452Z,19.21
2023-04-22T09:30:23.436Z,19.23
2023-04-22T09:31:23.467Z,19.25
2023-04-22T09:32:23.470Z,19.31
2023-04-22T09:33:23.414Z,19.35
2023-04-22T09:34:23.398Z,19.39
2023-04-22T09:35:23.374Z,19.42
2023-04-22T09:36:23.367Z,19.42
2023-04-22T09:37:23.362Z,19.42
2023-04-22T09:38:23.352Z,19.45
2023-04-22T09:39:23.346Z,19.45
2023-04-22T09:40:23.340Z,19.47
2023-04-22T09:41:23.317Z,19.49
2023-04-22T09:42:23.310Z,19.52
2023-04-22T09:43:23.300Z,19.55
2023-04-22T09:44:23.320Z,19.55
2023-04-22T09:45:23.270Z,19.58
2023-04-22T09:46:23.463Z,19.61
2023-04-22T09:47:23.275Z,19.62
2023-04-22T09:48:23.250Z,19.64
2023-04-22T09:49:23.263Z,19.67
2023-04-22T09:50:23.236Z,19.70
2023-04-22T09:51:23.214Z,19.75
2023-04-22T09:52:23.203Z,19.80
2023-04-22T09:53:23.189Z,19.83
2023-04-22T09:54:23.171Z,19.92
2023-04-22T09:55:23.189Z,20.00
2023-04-22T09:56:23.160Z,20.05
2023-04-22T09:57:23.147Z,20.13
2023-04-22T09:58:23.147Z,20.20
2023-04-22T09:59:23.134Z,20.30
2023-04-22T10:00:23.115Z,20.37
2023-04-22T10:01:23.133Z,20.46
2023-04-22T10:02:23.134Z,20.53
2023-04-22T10:03:23.146Z,20.56
2023-04-22T10:04:23.117Z,20.57
2023-04-22T10:05:23.055Z,20.66
2023-04-22T10:06:23.070Z,20.69
2023-04-22T10:07:23.044Z,20.73
2023-04-22T10:08:23.214Z,20.76
2023-04-22T10:09:23.023Z,20.78
2023-04-22T10:10:23.017Z,20.78
2023-04-22T10:11:23.016Z,20.79
2023-04-22T10:12:32.791Z,20.79
2023-04-22T10:13:23.972Z,20.81
2023-04-22T10:14:23.214Z,20.81
2023-04-22T10:15:24.954Z,20.83
2023-04-22T10:16:22.980Z,20.88
2023-04-22T10:17:22.945Z,20.91
2023-04-22T10:18:22.934Z,20.93
2023-04-22T10:19:22.915Z,20.97
2023-04-22T10:20:22.905Z,21.03
2023-04-22T10:21:23.830Z,21.09
2023-04-22T10:22:22.890Z,21.13
2023-04-22T10:23:22.858Z,21.19
2023-04-22T10:24:22.868Z,21.26
2023-04-22T10:25:22.848Z,21.31
2023-04-22T10:26:22.835Z,21.38
2023-04-22T10:27:22.832Z,21.43
2023-04-22T10:28:22.823Z,21.49
2023-04-22T10:29:22.818Z,21.49
2023-04-22T10:30:22.795Z,21.52
2023-04-22T10:31:22.821Z,21.51
2023-04-22T10:32:22.792Z,21.53
2023-04-22T10:33:22.770Z,21.55
2023-04-22T10:34:22.762Z,21.61
2023-04-22T10:35:22.752Z,21.66
2023-04-22T10:36:22.720Z,21.73
2023-04-22T10:37:22.739Z,21.83
2023-04-22T10:38:22.714Z,21.90
2023-04-22T10:39:22.695Z,21.93
2023-04-22T10:40:22.763Z,21.98
2023-04-22T10:41:22.690Z,22.02
2023-04-22T10:42:22.674Z,22.05
2023-04-22T10:43:22.654Z,22.12
2023-04-22T10:44:22.657Z,22.19
2023-04-22T10:45:22.626Z,22.21
2023-04-22T10:46:22.726Z,22.26
2023-04-22T10:47:22.596Z,22.29
2023-04-22T10:48:22.607Z,22.36
2023-04-22T10:49:22.631Z,22.39
2023-04-22T10:50:22.580Z,22.45
2023-04-22T10:51:22.548Z,22.49
2023-04-22T10:52:22.555Z,22.56
2023-04-22T10:53:22.553Z,22.64
2023-04-22T10:54:22.788Z,22.72
2023-04-22T10:55:22.506Z,22.79
2023-04-22T10:56:22.525Z,22.85
2023-04-22T10:57:22.523Z,22.89
2023-04-22T10:58:22.503Z,22.94
2023-04-22T10:59:22.482Z,23.03
2023-04-22T11:00:22.486Z,23.09
2023-04-22T11:01:22.457Z,23.15
2023-04-22T11:02:22.508Z,23.23
2023-04-22T11:03:22.720Z,23.37
2023-04-22T11:04:22.654Z,23.45
2023-04-22T11:05:24.632Z,23.56
2023-04-22T11:06:22.495Z,23.62
2023-04-22T11:07:22.421Z,23.68
2023-04-22T11:08:22.386Z,23.74
2023-04-22T11:09:22.381Z,23.81
2023-04-22T11:10:22.364Z,23.90
2023-04-22T11:11:22.369Z,23.99
2023-04-22T11:12:22.334Z,24.00
2023-04-22T11:13:22.342Z,24.05
2023-04-22T11:14:22.328Z,24.11
2023-04-22T11:15:22.323Z,24.14
2023-04-22T11:16:22.774Z,24.16
2023-04-22T11:17:22.319Z,24.26
2023-04-22T11:18:22.302Z,24.31
2023-04-22T11:19:22.278Z,24.31
2023-04-22T11:20:22.273Z,24.31
2023-04-22T11:21:22.274Z,24.29
2023-04-22T11:22:22.231Z,24.23
2023-04-22T11:23:22.241Z,24.19
2023-04-22T11:24:22.252Z,24.27
2023-04-22T11:25:22.196Z,24.30
2023-04-22T11:26:22.232Z,24.39
2023-04-22T11:27:22.179Z,24.46
2023-04-22T11:28:22.196Z,24.55
2023-04-22T11:29:22.168Z,24.63
2023-04-22T11:30:22.166Z,24.66
2023-04-22T11:31:22.173Z,24.70
2023-04-22T11:32:22.183Z,24.75
2023-04-22T11:33:22.140Z,24.77
2023-04-22T11:34:22.130Z,24.83
2023-04-22T11:35:22.119Z,24.89
2023-04-22T11:36:22.096Z,24.97
2023-04-22T11:37:22.083Z,25.01
2023-04-22T11:38:22.087Z,24.92
2023-04-22T11:39:22.080Z,24.90
2023-04-22T11:40:30.906Z,24.98
2023-04-22T11:41:23.055Z,25.02
2023-04-22T11:42:22.030Z,25.01
2023-04-22T11:43:22.025Z,25.02
2023-04-22T11:44:22.015Z,25.07
2023-04-22T11:45:22.008Z,25.05
2023-04-22T11:46:22.560Z,25.07
2023-04-22T11:47:21.993Z,25.08
2023-04-22T11:48:21.964Z,25.08
2023-04-22T11:49:21.981Z,25.09
2023-04-22T11:50:21.958Z,25.07
2023-04-22T11:51:21.930Z,25.09
2023-04-22T11:52:21.920Z,25.14
2023-04-22T11:53:21.929Z,25.16
2023-04-22T11:54:21.898Z,25.19
2023-04-22T11:55:21.882Z,25.23
2023-04-22T11:56:21.870Z,25.35
2023-04-22T11:57:21.879Z,25.34
2023-04-22T11:58:21.886Z,25.34
2023-04-22T11:59:21.851Z,25.20
2023-04-22T12:00:21.848Z,25.09
2023-04-22T12:01:21.843Z,24.98
2023-04-22T12:02:21.892Z,24.99
2023-04-22T12:03:21.906Z,25.04
2023-04-22T12:04:21.914Z,25.09
2023-04-22T12:05:21.808Z,25.14
2023-04-22T12:06:21.775Z,25.14
2023-04-22T12:07:21.774Z,25.14
2023-04-22T12:08:21.739Z,25.08
2023-04-22T12:09:21.744Z,25.11
2023-04-22T12:10:21.752Z,25.19
2023-04-22T12:11:21.722Z,25.24
2023-04-22T12:12:21.716Z,25.22
2023-04-22T12:13:21.692Z,25.23
2023-04-22T12:14:21.694Z,25.26
2023-04-22T12:15:21.702Z,25.35
2023-04-22T12:16:21.709Z,25.29
2023-04-22T12:17:21.698Z,25.24
2023-04-22T12:18:21.633Z,25.22
2023-04-22T12:19:21.655Z,25.24
2023-04-22T12:20:24.115Z,25.26
2023-04-22T12:21:21.640Z,25.27
2023-04-22T12:22:21.610Z,25.34
2023-04-22T12:23:21.591Z,25.29
2023-04-22T12:24:21.582Z,25.36
2023-04-22T12:25:21.580Z,25.82
2023-04-22T12:26:23.652Z,25.60
2023-04-22T12:27:21.581Z,25.46
2023-04-22T12:28:21.545Z,25.38
2023-04-22T12:29:21.532Z,25.36
2023-04-22T12:30:21.511Z,25.31
2023-04-22T12:31:21.716Z,25.30
2023-04-22T12:32:23.098Z,25.39
2023-04-22T12:33:21.505Z,25.35
2023-04-22T12:34:21.473Z,25.54
2023-04-22T12:35:21.472Z,25.61
2023-04-22T12:36:21.454Z,25.86
2023-04-22T12:37:21.443Z,27.39
2023-04-22T12:38:21.440Z,27.96
2023-04-22T12:39:21.432Z,27.38
2023-04-22T12:40:21.440Z,27.02
2023-04-22T12:41:21.417Z,27.27
2023-04-22T12:42:21.393Z,27.72
2023-04-22T12:43:21.397Z,27.25
2023-04-22T12:44:23.151Z,26.98
2023-04-22T12:45:21.377Z,26.54
2023-04-22T12:46:21.449Z,26.35
2023-04-22T12:47:21.353Z,26.20
2023-04-22T12:48:21.344Z,25.98
2023-04-22T12:49:21.329Z,25.72
2023-04-22T12:50:21.306Z,25.53
2023-04-22T12:51:21.320Z,25.42
2023-04-22T12:52:21.296Z,25.38
2023-04-22T12:53:21.276Z,25.29